Hana — T2AX5 — position and weather

sailwx.info

Track history (hours):
 
Tides and Currents Weather Stations Pressure Air Temp Water Temp Dewpoint Dewpoint Depression Visibility Wind Speed Wind Dir Waves Ship Positions

Hana

Last reported at 2018-Jan-23 03:03 UTC. Time now 2018-Jun-25 13:51 UTC.
Position N 01°17' E 103°56'.
Warning: this ship's position is months out of date.

Length 196 m; draft 7.2 m.

Type: Ship. MMSI: 572951210.

Date/timePositionNaut miles runAvg speedWind from/ knotsBaromVisibWave heightAir tempDewpointWater temp
2018-Jan-23 03:03N 01°17' E 103°56'0 0.1
2018-Jan-23 03:00N 01°17' E 103°56'0 0.0
2018-Jan-23 02:30N 01°17' E 103°56'0 0.0
2018-Jan-23 02:00N 01°17' E 103°56'0 0.1
2018-Jan-23 01:30N 01°17' E 103°56'0 0.0
2018-Jan-23 01:00N 01°17' E 103°56'0 0.0
2018-Jan-23 00:30N 01°17' E 103°56'0 0.0
2018-Jan-23 00:00N 01°17' E 103°56'0 0.0
2018-Jan-22 23:27N 01°17' E 103°56'0 0.0
2018-Jan-22 22:51N 01°17' E 103°56'0 0.0
2018-Jan-22 22:30N 01°17' E 103°56'0 0.0
2018-Jan-22 22:00N 01°17' E 103°56'0 0.0
2018-Jan-22 21:30N 01°17' E 103°56'0 0.0
2018-Jan-22 21:00N 01°17' E 103°56'0 0.0
2018-Jan-22 20:30N 01°17' E 103°56'0 0.1
2018-Jan-22 20:00N 01°17' E 103°56'0 0.1
2018-Jan-22 19:30N 01°17' E 103°56'0 0.1
2018-Jan-22 19:00N 01°17' E 103°56'0 0.0
2018-Jan-22 18:27N 01°17' E 103°56'0 0.0
2018-Jan-22 18:00N 01°17' E 103°56'0 0.0
2018-Jan-22 17:30N 01°17' E 103°56'0 0.1
2018-Jan-22 17:00N 01°17' E 103°56'0 0.0
2018-Jan-22 16:30N 01°17' E 103°56'0 0.0
2018-Jan-22 16:00N 01°17' E 103°56'0 0.0
2018-Jan-22 15:27N 01°17' E 103°56'0 0.1
2018-Jan-22 15:00N 01°17' E 103°56'0 0.1
2018-Jan-22 14:27N 01°17' E 103°56'0 0.0
2018-Jan-22 14:00N 01°17' E 103°56'0 0.2
2018-Jan-22 13:30N 01°17' E 103°56'0 0.0
2018-Jan-22 13:00N 01°17' E 103°56'0 0.0
2018-Jan-22 12:30N 01°17' E 103°56'0 0.1
2018-Jan-22 11:48N 01°17' E 103°56'0 0.0
2018-Jan-22 11:21N 01°17' E 103°56'0 0.1
2018-Jan-22 10:09N 01°17' E 103°56'0 0.0
2018-Jan-22 09:42N 01°17' E 103°56'0 0.0
2018-Jan-22 07:15N 01°17' E 103°56'0 0.0
2018-Jan-22 05:42N 01°17' E 103°56'0 0.3
2018-Jan-22 05:21N 01°17' E 103°56'0 0.1
2018-Jan-22 03:57N 01°17' E 103°56'0 0.0
2018-Jan-22 02:57N 01°17' E 103°56'0 0.0
2018-Jan-22 02:21N 01°17' E 103°56'0 0.0
2018-Jan-21 22:27N 01°17' E 103°56'0 0.0
2018-Jan-21 21:54N 01°17' E 103°56'0 0.0
2018-Jan-21 21:30N 01°17' E 103°56'0 0.0
2018-Jan-21 20:51N 01°17' E 103°56'0 0.0
2018-Jan-21 19:18N 01°17' E 103°56'0 0.0
2018-Jan-21 18:57N 01°17' E 103°56'0 0.0
2018-Jan-21 18:27N 01°17' E 103°56'0 0.0
2018-Jan-21 17:51N 01°17' E 103°56'0 0.0
2018-Jan-21 17:21N 01°17' E 103°56'0 0.0
2018-Jan-21 14:51N 01°17' E 103°56'0 0.0
2018-Jan-21 14:30N 01°17' E 103°56'0 0.0
2018-Jan-21 13:57N 01°17' E 103°56'0 0.2
2018-Jan-21 13:18N 01°17' E 103°56'1 2.0
2018-Jan-21 12:59N 01°17' E 103°56'2 3.6
2018-Jan-21 12:30N 01°15' E 103°57'2 4.4
2018-Jan-21 11:58N 01°13' E 103°56'3 5.9
2018-Jan-21 11:30N 01°12' E 103°53'4 7.5
2018-Jan-21 10:59N 01°10' E 103°50'4 8.7
2018-Jan-21 10:30N 01°08' E 103°46'510.7
2018-Jan-21 10:00N 01°05' E 103°42'510.7
2018-Jan-21 09:30N 01°04' E 103°37'612.6
2018-Jan-21 09:00N 01°07' E 103°32'612.5
2018-Jan-21 08:29N 01°10' E 103°26'612.4
2018-Jan-21 07:58N 01°14' E 103°21'30212.0
2018-Jan-20 06:44N 05°05' E 100°06'313.2
2018-Jan-20 06:30N 05°08' E 100°05'613.1
2018-Jan-20 06:00N 05°15' E 100°05'713.3
2018-Jan-20 05:31N 05°21' E 100°06'712.8
2018-Jan-20 05:00N 05°28' E 100°07'712.4
2018-Jan-20 04:28N 05°33' E 100°11'4 8.1
2018-Jan-20 03:58N 05°34' E 100°15'510.2
2018-Jan-20 03:31N 05°31' E 100°18'611.2
2018-Jan-20 03:01N 05°27' E 100°21'3 6.1
2018-Jan-20 02:29N 05°23' E 100°21'0 0.1
2018-Jan-20 01:59N 05°23' E 100°21'0 0.0
2018-Jan-20 01:29N 05°23' E 100°21'0 0.0
2018-Jan-20 00:59N 05°23' E 100°21'0 0.0
2018-Jan-20 00:29N 05°23' E 100°21'0 0.0
2018-Jan-19 23:59N 05°23' E 100°21'0 0.1
2018-Jan-19 23:29N 05°23' E 100°21'0 0.0
2018-Jan-19 22:53N 05°23' E 100°21'0 0.3
2018-Jan-19 22:29N 05°23' E 100°21'0 0.2
2018-Jan-19 21:59N 05°23' E 100°21'0 0.0
2018-Jan-19 21:29N 05°23' E 100°21'0 0.0
2018-Jan-19 20:59N 05°23' E 100°21'0 0.1
2018-Jan-19 20:29N 05°23' E 100°21'0 0.0
2018-Jan-19 19:59N 05°23' E 100°21'0 0.0
2018-Jan-19 19:29N 05°23' E 100°21'0 0.0
2018-Jan-19 18:59N 05°23' E 100°21'0 0.0
2018-Jan-19 18:29N 05°23' E 100°21'0 0.0
2018-Jan-19 17:53N 05°23' E 100°21'0 0.0
2018-Jan-19 17:29N 05°23' E 100°21'0 0.1
2018-Jan-19 16:59N 05°23' E 100°21'0 0.0
2018-Jan-19 16:29N 05°23' E 100°21'0 0.1
2018-Jan-19 15:59N 05°23' E 100°21'0 0.3
2018-Jan-19 15:29N 05°23' E 100°21'0 0.1
2018-Jan-19 14:59N 05°23' E 100°21'0 0.0
2018-Jan-19 14:29N 05°23' E 100°21'0 0.0
2018-Jan-19 13:59N 05°23' E 100°21'0 0.0
2018-Jan-19 13:29N 05°23' E 100°21'0 0.0
2018-Jan-19 12:59N 05°23' E 100°21'0 0.0
2018-Jan-19 12:29N 05°23' E 100°21'0 0.0
2018-Jan-19 11:59N 05°23' E 100°21'0 0.3
2018-Jan-19 11:17N 05°23' E 100°21'0 0.2
2018-Jan-19 10:59N 05°23' E 100°21'0 0.3
2018-Jan-19 10:23N 05°23' E 100°21'0 0.2
2018-Jan-19 09:59N 05°23' E 100°21'0 0.2
2018-Jan-19 09:17N 05°23' E 100°21'0 0.0
2018-Jan-19 08:59N 05°23' E 100°21'0 0.0
2018-Jan-19 08:29N 05°23' E 100°21'0 0.0
2018-Jan-19 07:59N 05°23' E 100°21'0 0.0
2018-Jan-19 07:29N 05°23' E 100°21'0 0.0
2018-Jan-19 06:59N 05°23' E 100°21'0 0.0
2018-Jan-19 06:29N 05°23' E 100°21'0 0.0
2018-Jan-19 05:59N 05°23' E 100°21'0 0.0
2018-Jan-19 05:29N 05°23' E 100°21'0 0.0
2018-Jan-19 04:59N 05°23' E 100°21'0 0.0
2018-Jan-19 04:29N 05°23' E 100°21'0 0.0
2018-Jan-19 03:59N 05°23' E 100°21'0 0.1
2018-Jan-19 03:29N 05°23' E 100°21'0 0.2
2018-Jan-19 02:59N 05°23' E 100°21'0 0.2
2018-Jan-19 02:29N 05°23' E 100°21'0 0.1
2018-Jan-19 01:59N 05°23' E 100°21'0 0.0
2018-Jan-19 01:29N 05°23' E 100°21'0 0.0
2018-Jan-19 00:59N 05°23' E 100°21'0 0.0
2018-Jan-19 00:29N 05°23' E 100°21'0 0.0
2018-Jan-18 23:59N 05°23' E 100°21'0 0.0
2018-Jan-18 23:29N 05°23' E 100°21'0 0.0
2018-Jan-18 22:59N 05°23' E 100°21'0 0.0
2018-Jan-18 22:29N 05°23' E 100°21'0 0.3
2018-Jan-18 21:53N 05°23' E 100°21'0 0.1
2018-Jan-18 21:29N 05°23' E 100°21'0 0.0
2018-Jan-18 20:59N 05°23' E 100°21'0 0.1
2018-Jan-18 20:29N 05°23' E 100°21'0 0.0
2018-Jan-18 19:59N 05°23' E 100°21'0 0.0
2018-Jan-18 19:11N 05°23' E 100°21'0 0.0
2018-Jan-18 18:59N 05°23' E 100°21'0 0.0
2018-Jan-18 18:29N 05°23' E 100°21'0 0.0
2018-Jan-18 17:59N 05°23' E 100°21'0 0.0
2018-Jan-18 17:29N 05°23' E 100°21'0 0.0
2018-Jan-18 16:59N 05°23' E 100°21'0 0.1
2018-Jan-18 16:29N 05°23' E 100°21'0 0.1
2018-Jan-18 15:59N 05°23' E 100°21'0 0.2
2018-Jan-18 15:29N 05°23' E 100°21'0 0.2
2018-Jan-18 14:59N 05°23' E 100°21'0 0.0
2018-Jan-18 14:29N 05°23' E 100°21'0 0.0
2018-Jan-18 13:59N 05°23' E 100°21'0 0.0
2018-Jan-18 13:29N 05°23' E 100°21'0 0.0
2018-Jan-18 12:59N 05°23' E 100°21'0 0.0
2018-Jan-18 12:29N 05°23' E 100°21'0 0.0
2018-Jan-18 11:59N 05°23' E 100°21'0 0.0
2018-Jan-18 11:29N 05°23' E 100°21'0 0.0
2018-Jan-18 10:59N 05°23' E 100°21'0 0.1
2018-Jan-18 10:29N 05°23' E 100°21'0 0.3
2018-Jan-18 09:53N 05°23' E 100°21'0 0.5
2018-Jan-18 09:29N 05°23' E 100°21'0 0.1
2018-Jan-18 08:53N 05°23' E 100°21'0 0.0
2018-Jan-18 08:29N 05°23' E 100°21'0 0.0
2018-Jan-18 07:59N 05°23' E 100°21'0 0.1
2018-Jan-18 07:17N 05°23' E 100°21'0 0.2
2018-Jan-18 06:59N 05°23' E 100°21'0 0.1
2018-Jan-18 06:29N 05°23' E 100°21'0 0.0
2018-Jan-18 05:59N 05°23' E 100°21'0 0.0
2018-Jan-18 05:29N 05°23' E 100°21'0 0.0
2018-Jan-18 04:53N 05°23' E 100°21'0 0.1
2018-Jan-18 04:29N 05°23' E 100°21'0 0.0
2018-Jan-18 03:59N 05°23' E 100°21'0 0.0
2018-Jan-18 03:29N 05°23' E 100°21'0 0.3
2018-Jan-18 02:59N 05°23' E 100°21'0 0.0
2018-Jan-18 02:29N 05°23' E 100°21'0 0.1
2018-Jan-18 01:59N 05°23' E 100°21'0 0.1
2018-Jan-18 01:29N 05°23' E 100°21'0 0.1
2018-Jan-18 00:59N 05°23' E 100°21'0 0.0
2018-Jan-17 23:59N 05°23' E 100°21'0 0.0
2018-Jan-17 23:53N 05°23' E 100°21'  
Track history (hours):
 
Tides and Currents Weather Stations Pressure Air Temp Water Temp Dewpoint Dewpoint Depression Visibility Wind Speed Wind Dir Waves Ship Positions

Hana

Last reported at 2018-Jan-23 03:03 UTC. Time now 2018-Jun-25 13:51 UTC.
Position N 01°17' E 103°56'.
Warning: this ship's position is months out of date.

Length 196 m; draft 7.2 m.

Type: Ship. MMSI: 572951210.

Date/timePositionNaut miles runAvg speedWind from/ knotsBaromVisibWave heightAir tempDewpointWater temp
2018-Jan-23 03:03N 01°17' E 103°56'0 0.1
2018-Jan-23 03:00N 01°17' E 103°56'0 0.0
2018-Jan-23 02:30N 01°17' E 103°56'0 0.0
2018-Jan-23 02:00N 01°17' E 103°56'0 0.1
2018-Jan-23 01:30N 01°17' E 103°56'0 0.0
2018-Jan-23 01:00N 01°17' E 103°56'0 0.0
2018-Jan-23 00:30N 01°17' E 103°56'0 0.0
2018-Jan-23 00:00N 01°17' E 103°56'0 0.0
2018-Jan-22 23:27N 01°17' E 103°56'0 0.0
2018-Jan-22 22:51N 01°17' E 103°56'0 0.0
2018-Jan-22 22:30N 01°17' E 103°56'0 0.0
2018-Jan-22 22:00N 01°17' E 103°56'0 0.0
2018-Jan-22 21:30N 01°17' E 103°56'0 0.0
2018-Jan-22 21:00N 01°17' E 103°56'0 0.0
2018-Jan-22 20:30N 01°17' E 103°56'0 0.1
2018-Jan-22 20:00N 01°17' E 103°56'0 0.1
2018-Jan-22 19:30N 01°17' E 103°56'0 0.1
2018-Jan-22 19:00N 01°17' E 103°56'0 0.0
2018-Jan-22 18:27N 01°17' E 103°56'0 0.0
2018-Jan-22 18:00N 01°17' E 103°56'0 0.0
2018-Jan-22 17:30N 01°17' E 103°56'0 0.1
2018-Jan-22 17:00N 01°17' E 103°56'0 0.0
2018-Jan-22 16:30N 01°17' E 103°56'0 0.0
2018-Jan-22 16:00N 01°17' E 103°56'0 0.0
2018-Jan-22 15:27N 01°17' E 103°56'0 0.1
2018-Jan-22 15:00N 01°17' E 103°56'0 0.1
2018-Jan-22 14:27N 01°17' E 103°56'0 0.0
2018-Jan-22 14:00N 01°17' E 103°56'0 0.2
2018-Jan-22 13:30N 01°17' E 103°56'0 0.0
2018-Jan-22 13:00N 01°17' E 103°56'0 0.0
2018-Jan-22 12:30N 01°17' E 103°56'0 0.1
2018-Jan-22 11:48N 01°17' E 103°56'0 0.0
2018-Jan-22 11:21N 01°17' E 103°56'0 0.1
2018-Jan-22 10:09N 01°17' E 103°56'0 0.0
2018-Jan-22 09:42N 01°17' E 103°56'0 0.0
2018-Jan-22 07:15N 01°17' E 103°56'0 0.0
2018-Jan-22 05:42N 01°17' E 103°56'0 0.3
2018-Jan-22 05:21N 01°17' E 103°56'0 0.1
2018-Jan-22 03:57N 01°17' E 103°56'0 0.0
2018-Jan-22 02:57N 01°17' E 103°56'0 0.0
2018-Jan-22 02:21N 01°17' E 103°56'0 0.0
2018-Jan-21 22:27N 01°17' E 103°56'0 0.0
2018-Jan-21 21:54N 01°17' E 103°56'0 0.0
2018-Jan-21 21:30N 01°17' E 103°56'0 0.0
2018-Jan-21 20:51N 01°17' E 103°56'0 0.0
2018-Jan-21 19:18N 01°17' E 103°56'0 0.0
2018-Jan-21 18:57N 01°17' E 103°56'0 0.0
2018-Jan-21 18:27N 01°17' E 103°56'0 0.0
2018-Jan-21 17:51N 01°17' E 103°56'0 0.0
2018-Jan-21 17:21N 01°17' E 103°56'0 0.0
2018-Jan-21 14:51N 01°17' E 103°56'0 0.0
2018-Jan-21 14:30N 01°17' E 103°56'0 0.0
2018-Jan-21 13:57N 01°17' E 103°56'0 0.2
2018-Jan-21 13:18N 01°17' E 103°56'1 2.0
2018-Jan-21 12:59N 01°17' E 103°56'2 3.6
2018-Jan-21 12:30N 01°15' E 103°57'2 4.4
2018-Jan-21 11:58N 01°13' E 103°56'3 5.9
2018-Jan-21 11:30N 01°12' E 103°53'4 7.5
2018-Jan-21 10:59N 01°10' E 103°50'4 8.7
2018-Jan-21 10:30N 01°08' E 103°46'510.7
2018-Jan-21 10:00N 01°05' E 103°42'510.7
2018-Jan-21 09:30N 01°04' E 103°37'612.6
2018-Jan-21 09:00N 01°07' E 103°32'612.5
2018-Jan-21 08:29N 01°10' E 103°26'612.4
2018-Jan-21 07:58N 01°14' E 103°21'30212.0
2018-Jan-20 06:44N 05°05' E 100°06'313.2
2018-Jan-20 06:30N 05°08' E 100°05'613.1
2018-Jan-20 06:00N 05°15' E 100°05'713.3
2018-Jan-20 05:31N 05°21' E 100°06'712.8
2018-Jan-20 05:00N 05°28' E 100°07'712.4
2018-Jan-20 04:28N 05°33' E 100°11'4 8.1
2018-Jan-20 03:58N 05°34' E 100°15'510.2
2018-Jan-20 03:31N 05°31' E 100°18'611.2
2018-Jan-20 03:01N 05°27' E 100°21'3 6.1
2018-Jan-20 02:29N 05°23' E 100°21'0 0.1
2018-Jan-20 01:59N 05°23' E 100°21'0 0.0
2018-Jan-20 01:29N 05°23' E 100°21'0 0.0
2018-Jan-20 00:59N 05°23' E 100°21'0 0.0
2018-Jan-20 00:29N 05°23' E 100°21'0 0.0
2018-Jan-19 23:59N 05°23' E 100°21'0 0.1
2018-Jan-19 23:29N 05°23' E 100°21'0 0.0
2018-Jan-19 22:53N 05°23' E 100°21'0 0.3
2018-Jan-19 22:29N 05°23' E 100°21'0 0.2
2018-Jan-19 21:59N 05°23' E 100°21'0 0.0
2018-Jan-19 21:29N 05°23' E 100°21'0 0.0
2018-Jan-19 20:59N 05°23' E 100°21'0 0.1
2018-Jan-19 20:29N 05°23' E 100°21'0 0.0
2018-Jan-19 19:59N 05°23' E 100°21'0 0.0
2018-Jan-19 19:29N 05°23' E 100°21'0 0.0
2018-Jan-19 18:59N 05°23' E 100°21'0 0.0
2018-Jan-19 18:29N 05°23' E 100°21'0 0.0
2018-Jan-19 17:53N 05°23' E 100°21'0 0.0
2018-Jan-19 17:29N 05°23' E 100°21'0 0.1
2018-Jan-19 16:59N 05°23' E 100°21'0 0.0
2018-Jan-19 16:29N 05°23' E 100°21'0 0.1
2018-Jan-19 15:59N 05°23' E 100°21'0 0.3
2018-Jan-19 15:29N 05°23' E 100°21'0 0.1
2018-Jan-19 14:59N 05°23' E 100°21'0 0.0
2018-Jan-19 14:29N 05°23' E 100°21'0 0.0
2018-Jan-19 13:59N 05°23' E 100°21'0 0.0
2018-Jan-19 13:29N 05°23' E 100°21'0 0.0
2018-Jan-19 12:59N 05°23' E 100°21'0 0.0
2018-Jan-19 12:29N 05°23' E 100°21'0 0.0
2018-Jan-19 11:59N 05°23' E 100°21'0 0.3
2018-Jan-19 11:17N 05°23' E 100°21'0 0.2
2018-Jan-19 10:59N 05°23' E 100°21'0 0.3
2018-Jan-19 10:23N 05°23' E 100°21'0 0.2
2018-Jan-19 09:59N 05°23' E 100°21'0 0.2
2018-Jan-19 09:17N 05°23' E 100°21'0 0.0
2018-Jan-19 08:59N 05°23' E 100°21'0 0.0
2018-Jan-19 08:29N 05°23' E 100°21'0 0.0
2018-Jan-19 07:59N 05°23' E 100°21'0 0.0
2018-Jan-19 07:29N 05°23' E 100°21'0 0.0
2018-Jan-19 06:59N 05°23' E 100°21'0 0.0
2018-Jan-19 06:29N 05°23' E 100°21'0 0.0
2018-Jan-19 05:59N 05°23' E 100°21'0 0.0
2018-Jan-19 05:29N 05°23' E 100°21'0 0.0
2018-Jan-19 04:59N 05°23' E 100°21'0 0.0
2018-Jan-19 04:29N 05°23' E 100°21'0 0.0
2018-Jan-19 03:59N 05°23' E 100°21'0 0.1
2018-Jan-19 03:29N 05°23' E 100°21'0 0.2
2018-Jan-19 02:59N 05°23' E 100°21'0 0.2
2018-Jan-19 02:29N 05°23' E 100°21'0 0.1
2018-Jan-19 01:59N 05°23' E 100°21'0 0.0
2018-Jan-19 01:29N 05°23' E 100°21'0 0.0
2018-Jan-19 00:59N 05°23' E 100°21'0 0.0
2018-Jan-19 00:29N 05°23' E 100°21'0 0.0
2018-Jan-18 23:59N 05°23' E 100°21'0 0.0
2018-Jan-18 23:29N 05°23' E 100°21'0 0.0
2018-Jan-18 22:59N 05°23' E 100°21'0 0.0
2018-Jan-18 22:29N 05°23' E 100°21'0 0.3
2018-Jan-18 21:53N 05°23' E 100°21'0 0.1
2018-Jan-18 21:29N 05°23' E 100°21'0 0.0
2018-Jan-18 20:59N 05°23' E 100°21'0 0.1
2018-Jan-18 20:29N 05°23' E 100°21'0 0.0
2018-Jan-18 19:59N 05°23' E 100°21'0 0.0
2018-Jan-18 19:11N 05°23' E 100°21'0 0.0
2018-Jan-18 18:59N 05°23' E 100°21'0 0.0
2018-Jan-18 18:29N 05°23' E 100°21'0 0.0
2018-Jan-18 17:59N 05°23' E 100°21'0 0.0
2018-Jan-18 17:29N 05°23' E 100°21'0 0.0
2018-Jan-18 16:59N 05°23' E 100°21'0 0.1
2018-Jan-18 16:29N 05°23' E 100°21'0 0.1
2018-Jan-18 15:59N 05°23' E 100°21'0 0.2
2018-Jan-18 15:29N 05°23' E 100°21'0 0.2
2018-Jan-18 14:59N 05°23' E 100°21'0 0.0
2018-Jan-18 14:29N 05°23' E 100°21'0 0.0
2018-Jan-18 13:59N 05°23' E 100°21'0 0.0
2018-Jan-18 13:29N 05°23' E 100°21'0 0.0
2018-Jan-18 12:59N 05°23' E 100°21'0 0.0
2018-Jan-18 12:29N 05°23' E 100°21'0 0.0
2018-Jan-18 11:59N 05°23' E 100°21'0 0.0
2018-Jan-18 11:29N 05°23' E 100°21'0 0.0
2018-Jan-18 10:59N 05°23' E 100°21'0 0.1
2018-Jan-18 10:29N 05°23' E 100°21'0 0.3
2018-Jan-18 09:53N 05°23' E 100°21'0 0.5
2018-Jan-18 09:29N 05°23' E 100°21'0 0.1
2018-Jan-18 08:53N 05°23' E 100°21'0 0.0
2018-Jan-18 08:29N 05°23' E 100°21'0 0.0
2018-Jan-18 07:59N 05°23' E 100°21'0 0.1
2018-Jan-18 07:17N 05°23' E 100°21'0 0.2
2018-Jan-18 06:59N 05°23' E 100°21'0 0.1
2018-Jan-18 06:29N 05°23' E 100°21'0 0.0
2018-Jan-18 05:59N 05°23' E 100°21'0 0.0
2018-Jan-18 05:29N 05°23' E 100°21'0 0.0
2018-Jan-18 04:53N 05°23' E 100°21'0 0.1
2018-Jan-18 04:29N 05°23' E 100°21'0 0.0
2018-Jan-18 03:59N 05°23' E 100°21'0 0.0
2018-Jan-18 03:29N 05°23' E 100°21'0 0.3
2018-Jan-18 02:59N 05°23' E 100°21'0 0.0
2018-Jan-18 02:29N 05°23' E 100°21'0 0.1
2018-Jan-18 01:59N 05°23' E 100°21'0 0.1
2018-Jan-18 01:29N 05°23' E 100°21'0 0.1
2018-Jan-18 00:59N 05°23' E 100°21'0 0.0
2018-Jan-17 23:59N 05°23' E 100°21'0 0.0
2018-Jan-17 23:53N 05°23' E 100°21'  

Dump ship's entire track history